createdAt,value
2019-02-25T00:02:13.003Z,5.90
2019-02-25T00:04:41.371Z,5.80
2019-02-25T00:07:09.757Z,5.90
2019-02-25T00:09:38.136Z,5.80
2019-02-25T00:12:06.524Z,5.70
2019-02-25T00:14:34.901Z,5.60
2019-02-25T00:17:03.440Z,5.60
2019-02-25T00:19:31.827Z,5.60
2019-02-25T00:22:00.203Z,5.60
2019-02-25T00:24:28.579Z,5.40
2019-02-25T00:26:56.955Z,5.30
2019-02-25T00:29:25.332Z,5.00
2019-02-25T00:32:13.052Z,4.80
2019-02-25T00:34:41.436Z,4.60
2019-02-25T00:37:09.810Z,4.40
2019-02-25T00:39:38.179Z,4.30
2019-02-25T00:42:06.564Z,4.20
2019-02-25T00:44:34.956Z,4.10
2019-02-25T00:47:03.324Z,4.10
2019-02-25T00:49:31.713Z,4.00
2019-02-25T00:52:00.083Z,3.80
2019-02-25T00:54:28.465Z,3.70
2019-02-25T00:56:56.846Z,3.60
2019-02-25T00:59:25.223Z,3.50
2019-02-25T01:01:53.596Z,3.40
2019-02-25T01:04:21.983Z,3.30
2019-02-25T01:06:50.355Z,3.30
2019-02-25T01:09:18.745Z,3.30
2019-02-25T01:11:47.112Z,3.40
2019-02-25T01:14:15.485Z,3.40
2019-02-25T01:16:43.864Z,3.30
2019-02-25T01:19:12.239Z,3.40
2019-02-25T01:21:40.616Z,3.40
2019-02-25T01:24:08.992Z,3.40
2019-02-25T01:26:37.374Z,3.40
2019-02-25T01:29:05.756Z,3.40
2019-02-25T01:31:34.127Z,3.30
2019-02-25T01:34:02.509Z,3.30
2019-02-25T01:36:30.887Z,3.20
2019-02-25T01:38:59.263Z,3.10
2019-02-25T01:41:27.646Z,3.10
2019-02-25T01:43:56.029Z,3.10
2019-02-25T01:46:24.396Z,3.10
2019-02-25T01:48:52.786Z,3.10
2019-02-25T01:51:22.224Z,3.20
2019-02-25T01:53:50.720Z,3.40
2019-02-25T01:56:19.103Z,3.80
2019-02-25T01:58:47.495Z,4.00
2019-02-25T02:01:15.869Z,4.10
2019-02-25T02:03:44.252Z,4.20
2019-02-25T02:06:12.637Z,4.20
2019-02-25T02:08:41.008Z,4.30
2019-02-25T02:11:09.400Z,4.40
2019-02-25T02:13:37.783Z,4.30
2019-02-25T02:16:06.164Z,4.20
2019-02-25T02:18:34.554Z,4.20
2019-02-25T02:21:02.927Z,4.30
2019-02-25T02:23:31.312Z,4.40
2019-02-25T02:25:59.687Z,4.40
2019-02-25T02:28:28.073Z,4.50
2019-02-25T02:30:56.448Z,4.60
2019-02-25T02:33:24.836Z,4.60
2019-02-25T02:35:53.212Z,4.60
2019-02-25T02:38:21.602Z,4.60
2019-02-25T02:40:49.972Z,4.50
2019-02-25T02:43:18.348Z,4.30
2019-02-25T02:45:53.329Z,4.10
2019-02-25T02:48:24.767Z,4.00
2019-02-25T02:50:53.157Z,4.20
2019-02-25T02:53:21.535Z,4.20
2019-02-25T02:56:09.260Z,4.10
2019-02-25T02:58:37.636Z,4.00
2019-02-25T03:01:06.007Z,3.80
2019-02-25T03:03:34.399Z,3.70
2019-02-25T03:06:02.775Z,3.70
2019-02-25T03:08:31.148Z,3.70
2019-02-25T03:10:59.528Z,3.70
2019-02-25T03:13:27.909Z,3.70
2019-02-25T03:15:56.294Z,3.70
2019-02-25T03:18:24.677Z,3.70
2019-02-25T03:20:53.060Z,3.70
2019-02-25T03:23:21.434Z,3.70
2019-02-25T03:25:49.833Z,3.70
2019-02-25T03:28:18.204Z,3.70
2019-02-25T03:30:46.604Z,3.60
2019-02-25T03:33:34.306Z,3.50
2019-02-25T03:36:02.709Z,3.50
2019-02-25T03:38:31.079Z,3.40
2019-02-25T03:40:59.465Z,3.50
2019-02-25T03:43:27.852Z,3.50
2019-02-25T03:45:56.232Z,3.60
2019-02-25T03:48:24.607Z,3.70
2019-02-25T03:50:52.992Z,3.70
2019-02-25T03:53:21.375Z,3.70
2019-02-25T03:55:49.755Z,3.60
2019-02-25T03:58:18.139Z,3.60
2019-02-25T04:00:46.507Z,3.70
2019-02-25T04:03:14.883Z,3.70
2019-02-25T04:05:43.279Z,3.70
2019-02-25T04:08:11.662Z,3.80
2019-02-25T04:10:40.023Z,3.90
2019-02-25T04:13:08.399Z,3.80
2019-02-25T04:15:41.572Z,3.80
2019-02-25T04:18:09.948Z,3.80
2019-02-25T04:20:38.324Z,3.90
2019-02-25T04:23:06.717Z,4.00
2019-02-25T04:25:35.092Z,4.20
2019-02-25T04:28:03.721Z,4.30
2019-02-25T04:30:32.108Z,4.30
2019-02-25T04:33:00.496Z,4.30
2019-02-25T04:35:28.871Z,4.30
2019-02-25T04:37:57.251Z,4.20
2019-02-25T04:40:25.636Z,4.10
2019-02-25T04:42:54.018Z,4.10
2019-02-25T04:45:22.404Z,4.10
2019-02-25T04:47:50.793Z,4.00
2019-02-25T04:50:19.169Z,3.90
2019-02-25T04:52:47.549Z,3.80
2019-02-25T04:55:16.299Z,3.60
2019-02-25T04:57:44.687Z,3.60
2019-02-25T05:00:20.937Z,3.60
2019-02-25T05:02:49.307Z,3.60
2019-02-25T05:05:17.687Z,3.70
2019-02-25T05:07:46.062Z,3.60
2019-02-25T05:10:15.584Z,3.60
2019-02-25T05:12:45.602Z,3.50
2019-02-25T05:15:21.560Z,3.30
2019-02-25T05:17:49.940Z,3.20
2019-02-25T05:20:18.325Z,3.00
2019-02-25T05:22:46.712Z,2.90
2019-02-25T05:25:15.084Z,2.80
2019-02-25T05:27:43.448Z,2.90
2019-02-25T05:30:13.775Z,3.00
2019-02-25T05:32:42.154Z,3.20
2019-02-25T05:35:11.864Z,3.30
2019-02-25T05:37:40.237Z,3.20
2019-02-25T05:40:18.123Z,3.10
2019-02-25T05:42:46.567Z,3.10
2019-02-25T05:45:15.880Z,3.00
2019-02-25T05:47:44.270Z,3.00
2019-02-25T05:50:14.393Z,3.10
2019-02-25T05:52:42.776Z,3.10
2019-02-25T05:55:13.649Z,3.10
2019-02-25T05:57:42.039Z,3.00
2019-02-25T06:00:17.371Z,3.00
2019-02-25T06:02:45.748Z,2.90
2019-02-25T06:05:14.121Z,2.80
2019-02-25T06:07:42.494Z,2.60
2019-02-25T06:10:12.315Z,2.60
2019-02-25T06:12:40.685Z,2.70
2019-02-25T06:15:12.009Z,2.80
2019-02-25T06:17:40.385Z,2.80
2019-02-25T06:20:11.396Z,2.90
2019-02-25T06:22:39.784Z,3.00
2019-02-25T06:25:10.312Z,3.20
2019-02-25T06:27:38.717Z,3.30
2019-02-25T06:30:12.708Z,3.40
2019-02-25T06:32:41.079Z,3.40
2019-02-25T06:35:10.711Z,3.30
2019-02-25T06:37:39.088Z,3.30
2019-02-25T06:40:10.803Z,3.20
2019-02-25T06:42:39.180Z,3.20
2019-02-25T06:45:10.808Z,3.20
2019-02-25T06:47:39.181Z,3.20
2019-02-25T06:50:09.903Z,3.10
2019-02-25T06:52:38.274Z,3.10
2019-02-25T06:55:15.037Z,3.10
2019-02-25T06:57:43.483Z,3.20
2019-02-25T07:00:17.856Z,3.20
2019-02-25T07:02:46.230Z,3.30
2019-02-25T07:05:25.097Z,3.40
2019-02-25T07:08:01.100Z,3.50
2019-02-25T07:10:31.131Z,3.70
2019-02-25T07:13:04.050Z,3.80
2019-02-25T07:15:36.944Z,4.00
2019-02-25T07:18:09.645Z,4.10
2019-02-25T07:20:54.699Z,4.20
2019-02-25T07:23:33.219Z,4.30
2019-02-25T07:26:06.215Z,4.40
2019-02-25T07:28:44.775Z,4.50
2019-02-25T07:31:30.040Z,4.60
2019-02-25T07:34:02.985Z,4.70
2019-02-25T07:36:42.179Z,4.70
2019-02-25T07:39:15.164Z,4.80
2019-02-25T07:41:51.131Z,4.90
2019-02-25T07:44:30.096Z,5.00
2019-02-25T07:47:00.116Z,5.10
2019-02-25T07:49:30.131Z,5.30
2019-02-25T07:52:16.584Z,5.30
2019-02-25T07:55:03.142Z,5.30
2019-02-25T07:57:33.151Z,5.40
2019-02-25T08:00:03.185Z,6.60
2019-02-25T08:02:33.216Z,8.20
2019-02-25T08:05:12.313Z,9.30
2019-02-25T08:07:51.335Z,10.50
2019-02-25T08:10:27.100Z,11.80
2019-02-25T08:13:02.831Z,13.10
2019-02-25T08:15:48.784Z,14.20
2019-02-25T08:18:34.081Z,15.20
2019-02-25T08:21:04.116Z,16.30
2019-02-25T08:23:34.135Z,16.70
2019-02-25T08:26:04.186Z,16.90
2019-02-25T08:28:36.886Z,17.80
2019-02-25T08:31:09.379Z,17.60
2019-02-25T08:33:42.371Z,17.80
2019-02-25T08:36:24.443Z,17.30
2019-02-25T08:38:54.247Z,16.80
2019-02-25T08:41:36.029Z,17.00
2019-02-25T08:44:06.049Z,16.90
2019-02-25T08:46:36.066Z,16.80
2019-02-25T08:49:11.895Z,17.00
2019-02-25T08:51:40.268Z,17.40
2019-02-25T08:54:08.645Z,17.90
2019-02-25T08:56:37.104Z,18.50
2019-02-25T08:59:05.484Z,18.40
2019-02-25T09:01:34.685Z,18.20
2019-02-25T09:04:03.157Z,18.00
2019-02-25T09:06:31.537Z,18.00
2019-02-25T09:08:59.931Z,18.20
2019-02-25T09:11:28.312Z,18.30
2019-02-25T09:13:56.695Z,18.60
2019-02-25T09:16:25.076Z,18.80
2019-02-25T09:18:53.453Z,20.00
2019-02-25T09:21:21.836Z,21.20
2019-02-25T09:23:50.228Z,22.00
2019-02-25T09:26:18.604Z,22.00
2019-02-25T09:28:47.000Z,22.70
2019-02-25T09:31:15.377Z,22.50
2019-02-25T09:33:43.755Z,22.60
2019-02-25T09:36:12.220Z,23.00
2019-02-25T09:38:40.639Z,23.80
2019-02-25T09:41:09.032Z,24.30
2019-02-25T09:43:37.408Z,24.90
2019-02-25T09:46:05.800Z,25.20
2019-02-25T09:48:34.174Z,25.60
2019-02-25T09:51:02.551Z,25.40
2019-02-25T09:53:30.946Z,24.40
2019-02-25T09:55:59.320Z,24.60
2019-02-25T09:58:27.703Z,24.90
2019-02-25T10:00:56.080Z,24.80
2019-02-25T10:03:24.448Z,24.10
2019-02-25T10:05:52.839Z,24.10
2019-02-25T10:08:21.231Z,23.80
2019-02-25T10:10:49.615Z,24.00
2019-02-25T10:13:18.033Z,23.80
2019-02-25T10:15:46.464Z,24.10
2019-02-25T10:18:14.841Z,24.70
2019-02-25T10:20:43.228Z,24.10
2019-02-25T10:23:11.605Z,24.30
2019-02-25T10:25:39.998Z,23.80
2019-02-25T10:28:08.372Z,23.60
2019-02-25T10:30:36.759Z,24.00
2019-02-25T10:33:05.143Z,25.00
2019-02-25T10:35:33.534Z,25.60
2019-02-25T10:38:03.207Z,25.80
2019-02-25T10:40:31.767Z,25.50
2019-02-25T10:43:00.156Z,25.00
2019-02-25T10:45:28.535Z,24.70
2019-02-25T10:47:58.744Z,25.30
2019-02-25T10:50:28.698Z,25.20
2019-02-25T10:53:03.471Z,25.80
2019-02-25T10:55:45.020Z,27.00
2019-02-25T10:58:12.014Z,27.80
2019-02-25T11:00:41.722Z,28.60
2019-02-25T11:03:12.368Z,28.60
2019-02-25T11:05:40.776Z,27.40
2019-02-25T11:08:12.014Z,26.20
2019-02-25T11:10:43.970Z,24.90
2019-02-25T11:13:12.665Z,24.40
2019-02-25T11:15:42.412Z,24.80
2019-02-25T11:18:11.160Z,25.10
2019-02-25T11:20:39.552Z,25.40
2019-02-25T11:23:09.961Z,26.30
2019-02-25T11:25:38.120Z,26.00
2019-02-25T11:28:07.666Z,25.70
2019-02-25T11:30:36.603Z,26.20
2019-02-25T11:33:05.159Z,26.50
2019-02-25T11:35:34.226Z,26.10
2019-02-25T11:38:02.805Z,25.10
2019-02-25T11:40:33.603Z,24.80
2019-02-25T11:43:01.365Z,25.50
2019-02-25T11:45:29.821Z,25.80
2019-02-25T11:47:58.195Z,26.00
2019-02-25T11:50:26.588Z,25.70
2019-02-25T11:52:54.968Z,25.40
2019-02-25T11:55:23.416Z,25.50
2019-02-25T11:57:51.807Z,25.30
2019-02-25T12:00:28.879Z,25.00
2019-02-25T12:02:57.265Z,25.70
2019-02-25T12:05:25.641Z,25.80
2019-02-25T12:07:54.036Z,25.90
2019-02-25T12:10:22.419Z,25.80
2019-02-25T12:12:50.807Z,25.80
2019-02-25T12:15:21.402Z,25.50
2019-02-25T12:17:49.784Z,25.70
2019-02-25T12:20:18.232Z,26.10
2019-02-25T12:22:46.628Z,27.20
2019-02-25T12:25:16.535Z,27.40
2019-02-25T12:27:44.909Z,28.20
2019-02-25T12:30:23.884Z,28.60
2019-02-25T12:32:52.275Z,28.60
2019-02-25T12:35:20.660Z,28.70
2019-02-25T12:37:49.105Z,28.80
2019-02-25T12:40:17.927Z,28.80
2019-02-25T12:42:46.301Z,28.40
2019-02-25T12:45:15.524Z,28.60
2019-02-25T12:47:43.908Z,28.90
2019-02-25T12:50:14.484Z,29.70
2019-02-25T12:52:42.884Z,30.20
2019-02-25T12:55:12.897Z,29.70
2019-02-25T12:57:41.345Z,29.20
2019-02-25T13:00:18.556Z,29.30
2019-02-25T13:02:46.944Z,29.20
2019-02-25T13:05:23.212Z,29.40
2019-02-25T13:07:51.596Z,28.80
2019-02-25T13:10:19.979Z,28.60
2019-02-25T13:12:48.359Z,28.60
2019-02-25T13:15:20.704Z,28.50
2019-02-25T13:17:49.084Z,28.60
2019-02-25T13:20:17.463Z,29.00
2019-02-25T13:22:45.847Z,28.40
2019-02-25T13:25:23.220Z,27.60
2019-02-25T13:27:52.509Z,27.80
2019-02-25T13:30:21.715Z,27.70
2019-02-25T13:32:50.091Z,27.90
2019-02-25T13:35:18.586Z,28.20
2019-02-25T13:37:46.965Z,27.90
2019-02-25T13:40:17.347Z,28.20
2019-02-25T13:42:45.741Z,28.60
2019-02-25T13:45:21.049Z,28.50
2019-02-25T13:47:49.604Z,28.10
2019-02-25T13:50:18.795Z,27.40
2019-02-25T13:52:48.344Z,27.60
2019-02-25T13:55:19.120Z,27.70
2019-02-25T13:57:47.607Z,27.80
2019-02-25T14:00:21.271Z,28.20
2019-02-25T14:02:49.797Z,27.60
2019-02-25T14:05:18.272Z,27.40
2019-02-25T14:07:46.715Z,27.60
2019-02-25T14:10:16.444Z,27.60
2019-02-25T14:12:45.160Z,27.80
2019-02-25T14:15:21.161Z,27.70
2019-02-25T14:17:49.783Z,27.60
2019-02-25T14:20:22.243Z,27.20
2019-02-25T14:22:50.764Z,27.20
2019-02-25T14:25:29.259Z,27.10
2019-02-25T14:27:58.151Z,27.40
2019-02-25T14:30:27.541Z,27.40
2019-02-25T14:32:56.768Z,28.20
2019-02-25T14:35:28.566Z,28.60
2019-02-25T14:38:03.574Z,29.10
2019-02-25T14:40:32.054Z,29.90
2019-02-25T14:42:59.969Z,30.70
2019-02-25T14:45:31.497Z,30.50
2019-02-25T14:47:59.859Z,30.60
2019-02-25T14:50:29.769Z,30.00
2019-02-25T14:53:00.196Z,29.00
2019-02-25T14:55:28.340Z,28.90
2019-02-25T14:57:59.879Z,29.70
2019-02-25T15:00:29.003Z,30.60
2019-02-25T15:02:58.151Z,31.20
2019-02-25T15:05:26.768Z,31.80
2019-02-25T15:07:55.216Z,32.30
2019-02-25T15:10:26.745Z,32.80
2019-02-25T15:12:56.507Z,33.00
2019-02-25T15:15:24.265Z,32.40
2019-02-25T15:17:52.902Z,32.30
2019-02-25T15:20:23.341Z,32.00
2019-02-25T15:22:52.426Z,32.00
2019-02-25T15:25:21.187Z,31.80
2019-02-25T15:27:49.763Z,31.50
2019-02-25T15:30:28.219Z,31.60
2019-02-25T15:32:58.499Z,30.80
2019-02-25T15:35:31.099Z,30.50
2019-02-25T15:37:57.939Z,30.40
2019-02-25T15:40:27.271Z,30.30
2019-02-25T15:43:10.417Z,30.20
2019-02-25T15:45:40.634Z,30.00
2019-02-25T15:48:13.086Z,30.00
2019-02-25T15:50:44.103Z,30.00
2019-02-25T15:53:15.763Z,29.80
2019-02-25T15:55:42.420Z,29.60
2019-02-25T15:58:11.237Z,29.40
2019-02-25T16:00:39.794Z,29.30
2019-02-25T16:03:11.256Z,29.10
2019-02-25T16:05:39.652Z,29.00
2019-02-25T16:08:09.188Z,28.80
2019-02-25T16:10:37.571Z,28.50
2019-02-25T16:13:11.157Z,28.00
2019-02-25T16:15:36.512Z,27.70
2019-02-25T16:18:04.905Z,27.40
2019-02-25T16:20:33.289Z,27.30
2019-02-25T16:23:05.062Z,27.10
2019-02-25T16:25:34.338Z,26.70
2019-02-25T16:28:02.939Z,26.40
2019-02-25T16:30:31.520Z,26.20
2019-02-25T16:33:01.820Z,25.60
2019-02-25T16:35:30.011Z,25.20
2019-02-25T16:38:00.283Z,24.60
2019-02-25T16:40:30.834Z,24.20
2019-02-25T16:42:59.830Z,23.70
2019-02-25T16:45:34.818Z,23.20
2019-02-25T16:47:58.921Z,22.70
2019-02-25T16:50:27.483Z,22.10
2019-02-25T16:52:55.938Z,21.50
2019-02-25T16:55:27.504Z,21.10
2019-02-25T16:57:55.470Z,20.60
2019-02-25T17:00:29.462Z,20.10
2019-02-25T17:02:59.285Z,19.50
2019-02-25T17:05:26.545Z,18.90
2019-02-25T17:07:56.049Z,18.20
2019-02-25T17:10:27.079Z,17.60
2019-02-25T17:12:55.652Z,17.00
2019-02-25T17:15:26.893Z,16.30
2019-02-25T17:17:58.314Z,15.80
2019-02-25T17:20:27.815Z,15.30
2019-02-25T17:22:55.301Z,14.80
2019-02-25T17:25:26.849Z,14.30
2019-02-25T17:27:53.796Z,13.90
2019-02-25T17:30:24.045Z,13.60
2019-02-25T17:32:52.516Z,13.30
2019-02-25T17:35:25.386Z,13.10
2019-02-25T17:37:53.247Z,12.90
2019-02-25T17:40:22.495Z,12.70
2019-02-25T17:42:52.067Z,12.60
2019-02-25T17:45:25.093Z,12.40
2019-02-25T17:47:58.399Z,12.20
2019-02-25T17:50:24.020Z,11.90
2019-02-25T17:52:52.408Z,11.60
2019-02-25T17:55:29.385Z,11.30
2019-02-25T17:57:59.104Z,11.00
2019-02-25T18:00:31.915Z,10.80
2019-02-25T18:03:03.152Z,10.60
2019-02-25T18:05:31.796Z,10.40
2019-02-25T18:08:02.974Z,10.40
2019-02-25T18:10:31.491Z,10.50
2019-02-25T18:13:01.601Z,10.50
2019-02-25T18:15:32.788Z,10.40
2019-02-25T18:18:01.368Z,10.20
2019-02-25T18:20:30.136Z,10.20
2019-02-25T18:22:58.807Z,10.10
2019-02-25T18:25:27.330Z,10.00
2019-02-25T18:27:55.700Z,9.90
2019-02-25T18:30:29.642Z,9.80
2019-02-25T18:33:00.123Z,9.70
2019-02-25T18:35:28.528Z,9.60
2019-02-25T18:37:58.167Z,9.60
2019-02-25T18:40:27.436Z,9.50
2019-02-25T18:42:57.613Z,9.50
2019-02-25T18:45:26.100Z,9.90
2019-02-25T18:47:54.497Z,10.20
2019-02-25T18:50:26.843Z,10.30
2019-02-25T18:52:57.212Z,10.30
2019-02-25T18:55:29.373Z,10.30
2019-02-25T18:57:58.139Z,10.30
2019-02-25T19:00:36.204Z,10.30
2019-02-25T19:03:06.104Z,10.20
2019-02-25T19:05:34.565Z,10.10
2019-02-25T19:08:05.043Z,9.80
2019-02-25T19:10:33.424Z,9.70
2019-02-25T19:13:02.076Z,9.90
2019-02-25T19:15:30.636Z,10.10
2019-02-25T19:17:59.164Z,10.00
2019-02-25T19:20:28.069Z,10.00
2019-02-25T19:23:00.466Z,10.10
2019-02-25T19:25:28.204Z,10.10
2019-02-25T19:27:58.332Z,10.00
2019-02-25T19:30:27.827Z,9.80
2019-02-25T19:32:56.865Z,9.80
2019-02-25T19:35:26.292Z,9.80
2019-02-25T19:37:55.595Z,9.80
2019-02-25T19:40:24.947Z,9.70
2019-02-25T19:42:54.734Z,9.60
2019-02-25T19:45:24.396Z,9.50
2019-02-25T19:47:52.955Z,9.50
2019-02-25T19:50:25.333Z,9.60
2019-02-25T19:52:53.388Z,9.60
2019-02-25T19:55:23.494Z,9.60
2019-02-25T19:57:52.067Z,9.50
2019-02-25T20:00:29.750Z,9.40
2019-02-25T20:03:05.499Z,9.40
2019-02-25T20:05:33.308Z,9.30
2019-02-25T20:08:01.792Z,9.20
2019-02-25T20:10:30.907Z,9.20
2019-02-25T20:12:59.900Z,9.10
2019-02-25T20:15:28.272Z,8.90
2019-02-25T20:17:56.648Z,8.60
2019-02-25T20:20:26.676Z,8.30
2019-02-25T20:22:55.066Z,8.10
2019-02-25T20:25:25.837Z,7.90
2019-02-25T20:27:55.110Z,7.70
2019-02-25T20:30:25.782Z,7.60
2019-02-25T20:32:53.949Z,7.70
2019-02-25T20:35:24.364Z,7.90
2019-02-25T20:37:53.726Z,8.10
2019-02-25T20:40:24.118Z,8.30
2019-02-25T20:42:53.479Z,8.30
2019-02-25T20:45:30.021Z,8.50
2019-02-25T20:47:59.641Z,8.80
2019-02-25T20:50:28.335Z,8.90
2019-02-25T20:52:59.148Z,8.90
2019-02-25T20:55:27.573Z,8.80
2019-02-25T20:57:56.936Z,8.60
2019-02-25T21:00:25.781Z,8.60
2019-02-25T21:02:54.179Z,8.60
2019-02-25T21:05:41.896Z,8.50
2019-02-25T21:08:12.303Z,8.40
2019-02-25T21:10:40.404Z,8.40
2019-02-25T21:13:08.786Z,8.40
2019-02-25T21:15:38.356Z,8.30
2019-02-25T21:18:07.818Z,8.30
2019-02-25T21:20:36.305Z,8.20
2019-02-25T21:23:05.999Z,8.20
2019-02-25T21:25:36.782Z,8.20
2019-02-25T21:28:06.698Z,8.20
2019-02-25T21:30:37.084Z,8.00
2019-02-25T21:33:05.172Z,7.90
2019-02-25T21:35:36.652Z,7.70
2019-02-25T21:38:03.803Z,7.70
2019-02-25T21:40:32.573Z,7.80
2019-02-25T21:43:01.050Z,7.90
2019-02-25T21:45:32.130Z,8.00
2019-02-25T21:48:01.871Z,8.00
2019-02-25T21:50:31.411Z,8.10
2019-02-25T21:52:59.711Z,8.00
2019-02-25T21:55:30.227Z,8.00
2019-02-25T21:58:00.721Z,8.00
2019-02-25T22:00:31.956Z,8.00
2019-02-25T22:02:58.421Z,7.90
2019-02-25T22:05:26.792Z,7.90
2019-02-25T22:07:57.219Z,7.90
2019-02-25T22:10:25.289Z,7.80
2019-02-25T22:12:53.660Z,7.60
2019-02-25T22:15:22.501Z,7.50
2019-02-25T22:17:53.161Z,7.50
2019-02-25T22:20:22.104Z,7.30
2019-02-25T22:22:54.474Z,7.20
2019-02-25T22:25:22.465Z,7.00
2019-02-25T22:27:50.839Z,7.00
2019-02-25T22:30:19.796Z,7.20
2019-02-25T22:32:48.176Z,7.50
2019-02-25T22:35:16.563Z,7.60
2019-02-25T22:37:49.177Z,7.60
2019-02-25T22:40:17.430Z,7.40
2019-02-25T22:42:47.907Z,7.10
2019-02-25T22:45:23.007Z,6.80
2019-02-25T22:47:51.383Z,6.50
2019-02-25T22:50:19.771Z,6.20
2019-02-25T22:52:51.312Z,6.10
2019-02-25T22:55:20.356Z,6.20
2019-02-25T22:57:50.539Z,6.10
2019-02-25T23:00:43.079Z,5.90
2019-02-25T23:03:15.201Z,5.80
2019-02-25T23:05:43.654Z,5.70
2019-02-25T23:08:13.183Z,5.60
2019-02-25T23:10:44.313Z,5.70
2019-02-25T23:13:12.607Z,5.90
2019-02-25T23:15:43.781Z,6.00
2019-02-25T23:18:13.981Z,6.10
2019-02-25T23:20:41.442Z,6.20
2019-02-25T23:23:09.820Z,6.20
2019-02-25T23:25:38.208Z,6.30
2019-02-25T23:28:06.587Z,6.50
2019-02-25T23:30:34.965Z,6.60
2019-02-25T23:33:03.335Z,6.60
2019-02-25T23:35:31.709Z,6.60
2019-02-25T23:38:00.960Z,6.70
2019-02-25T23:40:31.260Z,6.60
2019-02-25T23:43:01.464Z,6.60
2019-02-25T23:45:29.651Z,6.60
2019-02-25T23:47:59.710Z,6.50
2019-02-25T23:50:29.747Z,6.40
2019-02-25T23:52:58.239Z,6.30
2019-02-25T23:55:27.770Z,6.20
2019-02-25T23:57:56.707Z,6.10
